Time;durP1;ratioP1;P1;durP2;ratioP2;P2;SDS_P1;SDS_P2;PMS_P1;PMS_P2;Temp;Humidity;BMP_temperature;BMP_pressure;BME280_temperature;BME280_humidity;BME280_pressure;Samples;Min_cycle;Max_cycle;Signal;HPM_P1;HPM_P2
2022/06/08 00:01:03;;;;;;;2.75;1.00;;;18.40;99.90;;;;;;7389429;19;20157;-82
2022/06/08 00:03:38;;;;;;;1.80;1.13;;;18.40;99.90;;;;;;7389518;19;20529;-77
2022/06/08 00:06:04;;;;;;;1.73;0.90;;;18.40;99.90;;;;;;7391767;19;20210;-83
2022/06/08 00:08:30;;;;;;;1.67;0.93;;;18.40;99.90;;;;;;7391504;19;20138;-77
2022/06/08 00:10:56;;;;;;;3.15;0.90;;;18.50;99.90;;;;;;7389278;19;20563;-82
2022/06/08 00:13:22;;;;;;;2.45;0.95;;;18.40;99.90;;;;;;7391922;19;20158;-77
2022/06/08 00:15:48;;;;;;;0.98;0.88;;;18.30;99.90;;;;;;7387317;19;20154;-84
2022/06/08 00:18:13;;;;;;;0.98;0.80;;;18.30;99.90;;;;;;7388999;19;20522;-77
2022/06/08 00:20:39;;;;;;;0.85;0.85;;;18.30;99.90;;;;;;7386313;19;20223;-78
2022/06/08 00:23:06;;;;;;;1.70;0.70;;;18.30;99.90;;;;;;7386813;19;20181;-77
2022/06/08 00:25:31;;;;;;;1.05;0.80;;;18.40;99.90;;;;;;7388752;19;20166;-77
2022/06/08 00:27:57;;;;;;;1.60;0.90;;;18.30;99.90;;;;;;7389456;19;20543;-76
2022/06/08 00:30:23;;;;;;;0.80;0.80;;;18.30;99.90;;;;;;7388526;19;20142;-77
2022/06/08 00:32:49;;;;;;;0.80;0.80;;;18.30;99.90;;;;;;7387758;19;20134;-80
2022/06/08 00:35:15;;;;;;;2.45;1.08;;;18.30;99.90;;;;;;7389703;19;20167;-82
2022/06/08 00:37:41;;;;;;;1.40;0.98;;;18.30;99.90;;;;;;7387862;19;20139;-83
2022/06/08 00:40:10;;;;;;;1.50;0.90;;;18.30;99.90;;;;;;7387772;19;20149;-81
2022/06/08 00:42:37;;;;;;;1.27;1.02;;;18.30;99.90;;;;;;7388000;19;20133;-83
2022/06/08 00:45:17;;;;;;;1.10;0.90;;;18.10;99.90;;;;;;7390359;19;20146;-79
2022/06/08 00:47:55;;;;;;;1.00;0.90;;;18.00;99.90;;;;;;7389305;19;20141;-81
2022/06/08 00:50:25;;;;;;;1.00;0.82;;;18.20;99.90;;;;;;7385113;19;20141;-77
2022/06/08 00:52:51;;;;;;;1.50;1.13;;;18.20;99.90;;;;;;7385489;19;20484;-77
2022/06/08 00:55:21;;;;;;;2.25;1.10;;;18.20;99.90;;;;;;7390585;19;20137;-80
2022/06/08 00:57:57;;;;;;;1.67;1.10;;;18.30;99.90;;;;;;7390111;19;20150;-82
2022/06/08 01:00:39;;;;;;;1.30;0.85;;;18.20;99.90;;;;;;7390819;19;20620;-77
2022/06/08 01:03:07;;;;;;;1.20;0.88;;;18.20;99.90;;;;;;7392252;19;20126;-77
2022/06/08 01:05:41;;;;;;;1.67;0.80;;;18.10;99.90;;;;;;7387397;19;20138;-77
2022/06/08 01:08:43;;;;;;;1.80;0.90;;;18.10;99.90;;;;;;7389439;19;20134;-79
2022/06/08 01:11:20;;;;;;;1.25;0.98;;;18.10;99.90;;;;;;7395461;19;20142;-77
2022/06/08 01:13:46;;;;;;;1.35;0.95;;;18.10;99.90;;;;;;7400523;19;20145;-81
2022/06/08 01:16:13;;;;;;;2.70;1.00;;;18.10;99.90;;;;;;7396812;19;20221;-81
2022/06/08 01:18:39;;;;;;;1.05;0.88;;;18.20;99.90;;;;;;7395116;19;20499;-81
2022/06/08 01:21:20;;;;;;;1.40;0.98;;;18.10;99.90;;;;;;7398039;19;20156;-77
2022/06/08 01:23:48;;;;;;;3.25;0.95;;;18.10;99.90;;;;;;7399051;19;20134;-77
2022/06/08 01:26:29;;;;;;;3.20;0.90;;;18.00;99.90;;;;;;7396864;19;20139;-82
2022/06/08 01:29:14;;;;;;;0.90;0.90;;;18.10;99.90;;;;;;7395379;19;20150;-82
2022/06/08 01:32:15;;;;;;;0.85;0.75;;;18.00;99.90;;;;;;7395423;19;20138;-77
2022/06/08 01:35:02;;;;;;;0.88;0.88;;;18.00;99.90;;;;;;7392682;19;20154;-77
2022/06/08 01:37:37;;;;;;;0.90;0.80;;;18.00;99.90;;;;;;7395015;19;20510;-78
2022/06/08 01:40:22;;;;;;;3.70;1.13;;;17.90;99.90;;;;;;7397934;19;20134;-77
2022/06/08 01:43:15;;;;;;;3.58;1.10;;;18.00;99.90;;;;;;7394438;19;20173;-82
2022/06/08 01:46:11;;;;;;;3.30;1.58;;;17.90;99.90;;;;;;7396324;19;20146;-81
2022/06/08 01:48:49;;;;;;;1.13;0.98;;;18.00;99.90;;;;;;7397082;19;20142;-81
2022/06/08 01:51:24;;;;;;;1.67;1.10;;;18.00;99.90;;;;;;7397825;19;20143;-77
2022/06/08 01:54:02;;;;;;;1.27;1.00;;;18.10;99.90;;;;;;7399502;19;20146;-78
2022/06/08 01:56:34;;;;;;;1.10;1.00;;;18.00;99.90;;;;;;7396970;19;20158;-82
2022/06/08 01:59:23;;;;;;;1.35;1.05;;;18.00;99.90;;;;;;7395568;19;20143;-81
2022/06/08 02:02:07;;;;;;;2.17;1.10;;;18.00;99.90;;;;;;7393595;19;20225;-76
2022/06/08 02:04:42;;;;;;;1.20;0.90;;;18.10;99.90;;;;;;7392715;19;20158;-77
2022/06/08 02:07:25;;;;;;;1.88;0.98;;;17.70;99.90;;;;;;7394359;19;20146;-77
2022/06/08 02:09:59;;;;;;;3.85;1.15;;;17.80;99.90;;;;;;7394629;19;20135;-82
2022/06/08 02:12:30;;;;;;;2.72;0.95;;;17.80;99.90;;;;;;7395362;19;20138;-82
2022/06/08 02:15:24;;;;;;;1.67;1.08;;;17.90;99.90;;;;;;7396559;19;20153;-76
2022/06/08 02:17:52;;;;;;;3.70;1.23;;;17.90;99.90;;;;;;7393705;19;20242;-77
2022/06/08 02:20:30;;;;;;;1.20;0.77;;;17.90;99.90;;;;;;7394108;19;20150;-78
2022/06/08 02:23:14;;;;;;;1.33;1.00;;;17.70;99.90;;;;;;7390638;19;20515;-77
2022/06/08 02:25:45;;;;;;;2.83;1.38;;;17.60;99.90;;;;;;7396900;19;20162;-77
2022/06/08 02:28:22;;;;;;;3.45;1.20;;;17.70;99.90;;;;;;7394293;19;20135;-77
2022/06/08 02:30:56;;;;;;;1.88;1.00;;;17.80;99.90;;;;;;7395989;19;20150;-80
2022/06/08 02:36:19;;;;;;;2.65;1.17;;;17.90;99.90;;;;;;7394792;19;20469;-82
2022/06/08 02:39:09;;;;;;;1.77;0.93;;;17.90;99.90;;;;;;7395008;19;20611;-80
2022/06/08 02:41:38;;;;;;;2.75;1.25;;;17.80;99.90;;;;;;7394854;19;20134;-82
2022/06/08 02:44:09;;;;;;;1.48;1.00;;;17.80;99.90;;;;;;7395537;19;20206;-77
2022/06/08 02:46:48;;;;;;;1.00;0.90;;;17.90;99.90;;;;;;7392556;19;20155;-82
2022/06/08 02:49:14;;;;;;;1.40;1.10;;;17.80;99.90;;;;;;7394803;19;20139;-81
2022/06/08 02:51:49;;;;;;;1.35;1.17;;;17.90;99.90;;;;;;7393351;19;20139;-78
2022/06/08 02:54:23;;;;;;;1.40;1.13;;;17.80;99.90;;;;;;7396159;19;20154;-77
2022/06/08 02:57:14;;;;;;;2.88;1.30;;;17.70;99.90;;;;;;7396693;19;20150;-82
2022/06/08 02:59:59;;;;;;;0.95;0.90;;;17.70;99.90;;;;;;7394365;19;20157;-77
2022/06/08 03:02:36;;;;;;;1.65;1.08;;;17.70;99.90;;;;;;7394851;19;20140;-82
2022/06/08 03:05:21;;;;;;;2.97;0.98;;;17.70;99.90;;;;;;7389773;19;20147;-78
2022/06/08 03:08:00;;;;;;;2.97;1.20;;;17.60;99.90;;;;;;7391723;19;20624;-81
2022/06/08 03:10:32;;;;;;;2.78;1.20;;;17.60;99.90;;;;;;7392251;19;20138;-78
2022/06/08 03:13:06;;;;;;;2.00;1.17;;;17.60;99.90;;;;;;7393380;19;20210;-77
2022/06/08 03:15:34;;;;;;;1.05;0.95;;;17.60;99.90;;;;;;7391413;19;20141;-81
2022/06/08 03:18:00;;;;;;;2.65;1.05;;;17.60;99.90;;;;;;7390500;19;20146;-81
2022/06/08 03:20:27;;;;;;;0.85;0.85;;;17.50;99.90;;;;;;7393186;19;20150;-82
2022/06/08 03:22:54;;;;;;;5.35;2.08;;;17.40;99.90;;;;;;7392778;19;20664;-81
2022/06/08 03:25:21;;;;;;;3.08;1.20;;;17.40;99.90;;;;;;7396729;19;20147;-77
2022/06/08 03:27:47;;;;;;;1.90;1.02;;;17.50;99.90;;;;;;7391750;19;20146;-77
2022/06/08 03:30:14;;;;;;;2.35;1.02;;;17.50;99.90;;;;;;7390521;19;20266;-76
2022/06/08 03:32:40;;;;;;;1.60;1.13;;;17.50;99.90;;;;;;7392872;19;20139;-77
2022/06/08 03:35:06;;;;;;;2.05;1.00;;;17.50;99.90;;;;;;7394657;19;20139;-82
2022/06/08 03:37:32;;;;;;;3.00;1.23;;;17.50;99.90;;;;;;7394969;19;20500;-77
2022/06/08 03:39:58;;;;;;;5.75;1.38;;;17.50;99.90;;;;;;7394672;19;20134;-83
2022/06/08 03:42:30;;;;;;;7.10;1.85;;;17.50;99.90;;;;;;7394351;19;20131;-82
2022/06/08 03:44:56;;;;;;;4.03;1.10;;;17.50;99.90;;;;;;7396384;19;20151;-82
2022/06/08 03:47:29;;;;;;;2.85;1.33;;;17.50;99.90;;;;;;7393527;19;20594;-81
2022/06/08 03:50:04;;;;;;;1.88;1.27;;;17.40;99.90;;;;;;7391886;19;20134;-77
2022/06/08 03:52:35;;;;;;;1.95;1.05;;;17.50;99.90;;;;;;7394016;19;20821;-77
2022/06/08 03:55:04;;;;;;;2.20;1.10;;;17.40;99.90;;;;;;7391703;19;20162;-82
2022/06/08 03:57:31;;;;;;;2.30;1.10;;;17.30;99.90;;;;;;7391708;19;20135;-78
2022/06/08 04:00:00;;;;;;;1.60;1.00;;;17.50;99.90;;;;;;7392044;19;20153;-80
2022/06/08 04:02:27;;;;;;;2.42;1.13;;;17.50;99.90;;;;;;7393793;19;20134;-81
2022/06/08 04:04:53;;;;;;;1.65;0.80;;;17.50;99.90;;;;;;7389521;19;20174;-77
2022/06/08 04:07:19;;;;;;;2.95;1.15;;;17.60;99.90;;;;;;7391133;19;20243;-81
2022/06/08 04:09:46;;;;;;;1.45;1.10;;;17.70;99.90;;;;;;7390671;19;20225;-83
2022/06/08 04:12:12;;;;;;;2.25;1.25;;;17.60;99.90;;;;;;7392125;19;20222;-82
2022/06/08 04:14:38;;;;;;;1.92;1.25;;;17.60;99.90;;;;;;7394554;19;20558;-76
2022/06/08 04:17:06;;;;;;;2.88;1.25;;;17.60;99.90;;;;;;7393782;19;20139;-76
2022/06/08 04:19:31;;;;;;;2.38;0.90;;;17.60;99.90;;;;;;7390248;19;20153;-82
2022/06/08 04:21:57;;;;;;;3.20;1.10;;;17.40;99.90;;;;;;7393671;19;20130;-77
2022/06/08 04:24:23;;;;;;;3.90;1.00;;;17.30;99.90;;;;;;7392812;19;20161;-82
2022/06/08 04:26:50;;;;;;;2.88;1.15;;;17.30;99.90;;;;;;7389208;19;22004;-82
2022/06/08 04:29:16;;;;;;;2.97;1.05;;;17.40;99.90;;;;;;7390558;19;20134;-82
2022/06/08 04:31:42;;;;;;;1.25;0.70;;;17.50;99.90;;;;;;7391425;19;20142;-77
2022/06/08 04:34:10;;;;;;;8.43;4.78;;;17.50;99.90;;;;;;7387315;19;20151;-77
2022/06/08 04:36:38;;;;;;;5.45;2.80;;;17.60;99.90;;;;;;7392852;19;20134;-82
2022/06/08 04:39:06;;;;;;;1.52;1.00;;;17.50;99.90;;;;;;7390531;19;20150;-82
2022/06/08 04:41:33;;;;;;;3.22;1.10;;;17.70;99.90;;;;;;7390656;19;20150;-77
2022/06/08 04:43:59;;;;;;;1.30;1.08;;;17.80;99.90;;;;;;7389383;19;20155;-76
2022/06/08 04:46:25;;;;;;;3.35;1.02;;;17.90;99.90;;;;;;7388339;19;20150;-76
2022/06/08 04:48:51;;;;;;;3.55;0.88;;;17.90;99.90;;;;;;7389881;19;20149;-80
2022/06/08 04:51:17;;;;;;;2.60;1.27;;;17.90;99.90;;;;;;7391675;19;20139;-81
2022/06/08 04:53:44;;;;;;;3.70;1.02;;;17.70;99.90;;;;;;7390503;19;20163;-81
2022/06/08 04:56:10;;;;;;;2.90;1.00;;;17.70;99.90;;;;;;7390476;19;20164;-82
2022/06/08 04:58:37;;;;;;;1.15;0.75;;;17.50;99.90;;;;;;7387130;19;20138;-81
2022/06/08 05:01:03;;;;;;;2.47;1.10;;;17.50;99.90;;;;;;7388444;19;20158;-80
2022/06/08 05:03:30;;;;;;;4.60;0.85;;;17.50;99.90;;;;;;7388541;19;20198;-76
2022/06/08 05:05:58;;;;;;;4.03;0.90;;;17.60;99.90;;;;;;7391462;19;20186;-80
2022/06/08 05:08:25;;;;;;;1.92;1.20;;;17.50;99.90;;;;;;7391416;19;20143;-76
2022/06/08 05:10:52;;;;;;;14.18;9.52;;;17.60;99.90;;;;;;7390811;19;20223;-76
2022/06/08 05:13:20;;;;;;;2.08;1.85;;;17.50;99.90;;;;;;7391357;19;20147;-76
2022/06/08 05:15:48;;;;;;;5.03;2.17;;;17.60;99.90;;;;;;7389225;19;20158;-80
2022/06/08 05:18:18;;;;;;;5.25;1.20;;;17.50;99.90;;;;;;7391401;19;20150;-83
2022/06/08 05:20:45;;;;;;;1.58;1.15;;;17.60;99.90;;;;;;7390578;19;20131;-80
2022/06/08 05:23:15;;;;;;;1.92;1.00;;;17.60;99.90;;;;;;7389389;19;20224;-76
2022/06/08 05:25:42;;;;;;;3.25;1.10;;;17.90;99.90;;;;;;7385616;19;20135;-75
2022/06/08 05:28:09;;;;;;;3.22;1.40;;;18.10;99.90;;;;;;7390917;19;20206;-79
2022/06/08 05:30:36;;;;;;;1.92;0.80;;;18.20;99.90;;;;;;7384711;19;20134;-79
2022/06/08 05:33:03;;;;;;;3.38;1.05;;;18.30;99.90;;;;;;7385735;19;20566;-79
2022/06/08 05:35:30;;;;;;;3.25;1.23;;;18.30;99.90;;;;;;7389639;19;20478;-80
2022/06/08 05:37:56;;;;;;;5.38;1.25;;;18.40;99.90;;;;;;7389961;19;20143;-76
2022/06/08 05:40:25;;;;;;;1.65;1.23;;;18.50;99.90;;;;;;7383509;19;20147;-81
2022/06/08 05:42:51;;;;;;;4.65;1.10;;;18.60;99.90;;;;;;7392540;19;20139;-79
2022/06/08 05:45:22;;;;;;;2.33;1.30;;;18.70;99.90;;;;;;7400237;19;20231;-79
2022/06/08 05:47:49;;;;;;;3.13;1.02;;;18.50;99.90;;;;;;7378745;19;20230;-79
2022/06/08 05:50:14;;;;;;;3.60;1.10;;;18.20;99.90;;;;;;7381029;19;20130;-80
2022/06/08 05:52:41;;;;;;;1.67;1.00;;;18.20;99.90;;;;;;7384181;19;20135;-79
2022/06/08 05:55:09;;;;;;;4.90;1.10;;;18.30;99.90;;;;;;7386582;19;20138;-79
2022/06/08 05:57:38;;;;;;;5.50;0.95;;;18.30;99.90;;;;;;7385580;19;20134;-80
2022/06/08 06:00:09;;;;;;;2.80;1.00;;;18.30;99.90;;;;;;7391841;19;20135;-78
2022/06/08 06:02:35;;;;;;;2.92;0.90;;;18.60;99.90;;;;;;7392596;19;20173;-80
2022/06/08 06:05:00;;;;;;;2.53;1.08;;;18.40;99.90;;;;;;7390631;19;20635;-80
2022/06/08 06:07:26;;;;;;;2.20;1.08;;;18.40;99.90;;;;;;7395947;19;20681;-79
2022/06/08 06:09:52;;;;;;;4.50;1.38;;;18.70;99.90;;;;;;7390418;19;20142;-79
2022/06/08 06:12:19;;;;;;;4.25;1.02;;;19.10;99.90;;;;;;7392820;19;20247;-80
2022/06/08 06:14:45;;;;;;;2.83;1.10;;;19.20;99.90;;;;;;7397344;19;20471;-81
2022/06/08 06:17:11;;;;;;;2.75;1.13;;;19.60;99.90;;;;;;7397983;19;20470;-85
2022/06/08 06:19:37;;;;;;;2.88;1.08;;;19.80;99.90;;;;;;7406418;19;20170;-78
2022/06/08 06:22:04;;;;;;;2.15;1.40;;;20.30;99.90;;;;;;7399242;19;20135;-80
2022/06/08 06:24:31;;;;;;;2.42;1.48;;;21.40;99.90;;;;;;7398280;19;20210;-79
2022/06/08 06:26:57;;;;;;;3.67;1.10;;;22.40;99.90;;;;;;7400444;19;20210;-79
2022/06/08 06:29:24;;;;;;;2.38;1.08;;;23.10;99.90;;;;;;7396020;19;20163;-78
2022/06/08 06:31:59;;;;;;;1.60;1.10;;;23.20;99.90;;;;;;7400624;19;20133;-80
2022/06/08 06:34:26;;;;;;;4.45;1.00;;;23.70;99.90;;;;;;7395533;19;20144;-84
2022/06/08 06:36:53;;;;;;;3.20;1.20;;;23.30;99.90;;;;;;7397368;19;20486;-80
2022/06/08 06:39:21;;;;;;;5.63;0.77;;;22.80;99.90;;;;;;7399208;19;20250;-80
2022/06/08 06:41:47;;;;;;;7.68;5.13;;;22.10;99.90;;;;;;7397413;19;20134;-79
2022/06/08 06:44:13;;;;;;;1.38;1.02;;;21.30;99.90;;;;;;7393444;19;20151;-80
2022/06/08 06:46:39;;;;;;;3.10;1.15;;;21.30;99.90;;;;;;7395604;19;20630;-79
2022/06/08 06:49:05;;;;;;;3.28;0.80;;;21.10;99.90;;;;;;7394625;19;20605;-80
2022/06/08 06:51:34;;;;;;;2.88;1.10;;;21.00;99.90;;;;;;7396635;19;20134;-82
2022/06/08 06:54:04;;;;;;;2.85;1.05;;;21.20;99.90;;;;;;7395272;19;20138;-79
2022/06/08 06:56:30;;;;;;;2.53;1.00;;;21.20;99.90;;;;;;7409585;19;20162;-79
2022/06/08 06:58:56;;;;;;;4.18;0.90;;;21.60;99.90;;;;;;7395877;19;20157;-83
2022/06/08 07:01:22;;;;;;;10.75;7.60;;;21.60;99.90;;;;;;7393275;19;20135;-79
2022/06/08 07:03:47;;;;;;;8.60;3.85;;;21.30;99.90;;;;;;7395533;19;20185;-78
2022/06/08 07:06:15;;;;;;;4.50;1.95;;;21.20;99.90;;;;;;7395869;19;20143;-83
2022/06/08 07:08:41;;;;;;;4.05;1.40;;;21.30;99.90;;;;;;7391643;19;20147;-83
2022/06/08 07:13:52;;;;;;;3.85;1.40;;;21.60;99.90;;;;;;7396497;19;20214;-79
2022/06/08 07:16:18;;;;;;;3.45;1.30;;;21.90;99.90;;;;;;7393024;19;20150;-83
2022/06/08 07:18:44;;;;;;;2.20;1.00;;;21.90;99.90;;;;;;7393928;19;20146;-79
2022/06/08 07:21:11;;;;;;;2.10;1.10;;;21.80;99.90;;;;;;7394047;19;20138;-83
2022/06/08 07:23:38;;;;;;;2.38;0.75;;;22.20;99.90;;;;;;7394208;19;20126;-82
2022/06/08 07:26:03;;;;;;;5.55;2.47;;;22.50;99.90;;;;;;7392542;19;20526;-80
2022/06/08 07:28:30;;;;;;;3.63;2.05;;;22.70;99.90;;;;;;7392658;19;20135;-79
2022/06/08 07:30:56;;;;;;;3.75;2.55;;;23.00;99.90;;;;;;7395895;19;20139;-80
2022/06/08 07:33:22;;;;;;;3.80;1.98;;;23.10;99.90;;;;;;7400033;19;20154;-79
2022/06/08 07:35:48;;;;;;;2.53;0.90;;;23.10;99.90;;;;;;7391995;19;20143;-80
2022/06/08 07:38:14;;;;;;;2.90;1.20;;;23.40;99.90;;;;;;7391291;19;20135;-80
2022/06/08 07:40:40;;;;;;;4.45;1.63;;;24.10;99.90;;;;;;7396135;19;20176;-80
2022/06/08 07:43:07;;;;;;;2.17;1.23;;;25.00;99.90;;;;;;7394932;19;20219;-82
2022/06/08 07:45:33;;;;;;;4.82;1.42;;;25.00;99.90;;;;;;7396426;19;20150;-83
2022/06/08 07:50:43;;;;;;;2.30;1.20;;;25.10;99.90;;;;;;7398072;19;20138;-80
2022/06/08 07:53:09;;;;;;;3.15;1.25;;;25.20;99.90;;;;;;7396193;19;20658;-81
2022/06/08 07:55:35;;;;;;;2.35;1.27;;;25.40;99.90;;;;;;7396905;19;20137;-79
2022/06/08 07:58:03;;;;;;;14.10;6.28;;;25.60;99.90;;;;;;7401811;19;20130;-82
2022/06/08 08:00:30;;;;;;;4.07;1.55;;;25.40;99.50;;;;;;7392793;19;20139;-81
2022/06/08 08:02:56;;;;;;;1.50;1.30;;;25.70;99.90;;;;;;7391343;19;20155;-80
2022/06/08 08:05:22;;;;;;;2.25;1.00;;;26.10;99.50;;;;;;7396342;19;20453;-77
2022/06/08 08:07:50;;;;;;;1.02;0.70;;;25.90;98.90;;;;;;7399029;19;20134;-78
2022/06/08 08:10:23;;;;;;;2.55;1.00;;;26.10;98.20;;;;;;7388570;19;20153;-81
2022/06/08 08:12:51;;;;;;;2.83;1.00;;;26.10;98.20;;;;;;7393529;19;20531;-77
2022/06/08 08:15:17;;;;;;;4.93;1.33;;;26.00;98.00;;;;;;7389423;19;20169;-81
2022/06/08 08:17:43;;;;;;;7.93;2.10;;;26.30;98.10;;;;;;7391301;19;20159;-83
2022/06/08 08:20:15;;;;;;;2.88;1.50;;;26.60;97.80;;;;;;7393094;19;20164;-82
2022/06/08 08:22:41;;;;;;;1.70;0.80;;;26.50;97.70;;;;;;7392746;19;20202;-79
2022/06/08 08:25:09;;;;;;;3.65;1.05;;;26.70;97.30;;;;;;7394366;19;20177;-82
2022/06/08 08:27:36;;;;;;;1.95;0.90;;;26.60;97.20;;;;;;7393441;19;20595;-78
2022/06/08 08:30:03;;;;;;;3.03;1.25;;;26.70;97.70;;;;;;7389209;19;20143;-80
2022/06/08 08:32:29;;;;;;;9.13;6.47;;;26.80;97.30;;;;;;7390127;19;20142;-80
2022/06/08 08:34:55;;;;;;;4.38;1.52;;;26.90;97.60;;;;;;7397840;19;20139;-79
2022/06/08 08:37:21;;;;;;;2.83;1.27;;;27.00;95.90;;;;;;7396803;19;20158;-79
2022/06/08 08:39:47;;;;;;;4.30;2.58;;;27.40;95.60;;;;;;7393517;19;20604;-81
2022/06/08 08:42:21;;;;;;;2.33;1.10;;;27.30;96.00;;;;;;7392035;19;20201;-79
2022/06/08 08:45:06;;;;;;;2.65;1.17;;;27.20;95.60;;;;;;7395204;19;20138;-78
2022/06/08 08:47:57;;;;;;;4.55;2.90;;;27.10;95.50;;;;;;7391041;19;20502;-79
2022/06/08 08:50:37;;;;;;;3.88;1.40;;;26.90;95.10;;;;;;7390643;19;20153;-80
2022/06/08 08:53:10;;;;;;;3.80;1.30;;;26.80;95.40;;;;;;7393740;19;20154;-81
2022/06/08 08:55:44;;;;;;;3.58;2.05;;;26.60;95.60;;;;;;7392589;19;20584;-80
2022/06/08 08:58:20;;;;;;;2.78;1.30;;;26.70;95.70;;;;;;7395716;19;20158;-80
2022/06/08 09:00:52;;;;;;;2.10;1.17;;;26.50;94.80;;;;;;7391193;19;20147;-79
2022/06/08 09:03:39;;;;;;;3.03;1.13;;;26.20;95.00;;;;;;7393128;19;20253;-79
2022/06/08 09:06:17;;;;;;;2.25;1.17;;;25.70;95.30;;;;;;7392168;19;20224;-79
2022/06/08 09:08:46;;;;;;;5.45;1.20;;;25.60;96.10;;;;;;7394422;19;20210;-80
2022/06/08 09:11:19;;;;;;;1.42;0.70;;;25.60;96.40;;;;;;7392727;19;20153;-80
2022/06/08 09:13:48;;;;;;;2.50;0.80;;;25.20;96.60;;;;;;7388245;19;20151;-78
2022/06/08 09:16:27;;;;;;;1.10;0.68;;;24.20;97.40;;;;;;7390263;19;20559;-79
2022/06/08 09:18:55;;;;;;;3.85;1.00;;;24.40;97.90;;;;;;7392136;19;20654;-79
2022/06/08 09:21:35;;;;;;;3.47;0.93;;;24.70;98.30;;;;;;7393211;19;20135;-80
2022/06/08 09:24:17;;;;;;;3.50;1.73;;;24.80;96.60;;;;;;7392816;19;20248;-79
2022/06/08 09:26:44;;;;;;;3.50;1.77;;;25.20;96.30;;;;;;7391592;19;20460;-80
2022/06/08 09:29:17;;;;;;;4.13;2.10;;;25.30;95.90;;;;;;7390342;19;20147;-81
2022/06/08 09:31:44;;;;;;;4.38;1.80;;;25.40;96.80;;;;;;7397765;19;20145;-81
2022/06/08 09:34:18;;;;;;;3.90;1.60;;;25.50;97.20;;;;;;7398943;19;20143;-81
2022/06/08 09:37:02;;;;;;;3.80;1.17;;;25.60;96.40;;;;;;7398581;19;20134;-81
2022/06/08 09:39:29;;;;;;;2.20;1.10;;;25.70;96.20;;;;;;7397727;19;20226;-79
2022/06/08 09:41:55;;;;;;;1.55;0.90;;;25.50;96.50;;;;;;7408894;19;20181;-81
2022/06/08 09:44:29;;;;;;;2.17;1.35;;;25.60;96.20;;;;;;7399153;19;20150;-79
2022/06/08 09:53:45;;;;;;;2.63;0.90;;;24.90;96.20;;;;;;7401345;19;20167;-83
2022/06/08 09:56:31;;;;;;;1.77;1.13;;;25.10;96.80;;;;;;7398268;19;20582;-80
2022/06/08 09:59:15;;;;;;;2.22;1.40;;;25.30;95.30;;;;;;7399363;19;20539;-81
2022/06/08 10:01:59;;;;;;;3.90;1.30;;;25.40;94.70;;;;;;7400873;19;20544;-80
2022/06/08 10:04:37;;;;;;;1.55;1.20;;;25.30;93.50;;;;;;7396316;19;20178;-81
2022/06/08 10:07:13;;;;;;;2.65;1.20;;;25.10;93.40;;;;;;7394164;19;20143;-80
2022/06/08 10:10:22;;;;;;;0.93;0.80;;;25.00;94.50;;;;;;7393190;19;20144;-80
2022/06/08 10:13:00;;;;;;;1.80;0.70;;;24.80;95.10;;;;;;7400682;19;20139;-80
2022/06/08 10:15:46;;;;;;;1.80;0.80;;;24.70;95.20;;;;;;7405800;19;20154;-80
2022/06/08 10:18:15;;;;;;;4.25;0.68;;;24.70;94.60;;;;;;7394829;19;20169;-81
2022/06/08 10:21:01;;;;;;;2.42;0.70;;;24.60;93.30;;;;;;7398967;19;20127;-80
2022/06/08 10:23:49;;;;;;;1.65;0.65;;;24.70;93.10;;;;;;7400171;19;20591;-77
2022/06/08 10:26:28;;;;;;;3.45;1.75;;;24.70;93.30;;;;;;7395569;19;20562;-81
2022/06/08 10:28:56;;;;;;;2.22;1.00;;;24.80;93.70;;;;;;7397670;19;20162;-80
2022/06/08 10:31:38;;;;;;;4.78;3.30;;;24.80;93.30;;;;;;7396590;19;20145;-80
2022/06/08 10:34:17;;;;;;;1.80;1.27;;;24.60;93.90;;;;;;7396860;19;20752;-81
2022/06/08 10:36:48;;;;;;;1.92;1.65;;;24.50;94.00;;;;;;7394253;19;20206;-81
2022/06/08 10:39:15;;;;;;;2.60;0.77;;;24.50;93.80;;;;;;7392033;19;20139;-80
2022/06/08 10:44:52;;;;;;;1.95;0.80;;;24.60;93.80;;;;;;7394710;19;20168;-78
2022/06/08 10:47:27;;;;;;;1.55;1.13;;;24.60;93.40;;;;;;7393789;19;20222;-78
2022/06/08 10:50:13;;;;;;;3.10;0.93;;;24.80;93.70;;;;;;7392475;19;20145;-80
2022/06/08 10:52:44;;;;;;;2.67;0.70;;;25.00;92.90;;;;;;7399662;19;20150;-80
2022/06/08 10:55:17;;;;;;;2.70;0.80;;;25.00;92.20;;;;;;7394201;19;20150;-79
2022/06/08 10:57:47;;;;;;;1.20;0.68;;;24.80;93.20;;;;;;7394980;19;20497;-78
2022/06/08 11:00:19;;;;;;;1.30;0.90;;;24.70;91.90;;;;;;7392010;19;20175;-76
2022/06/08 11:02:54;;;;;;;1.50;0.57;;;24.60;92.40;;;;;;7397071;19;20233;-80
2022/06/08 11:05:44;;;;;;;1.95;0.82;;;24.80;91.80;;;;;;7389954;19;20142;-76
2022/06/08 11:08:10;;;;;;;8.95;5.78;;;25.00;91.20;;;;;;7391973;19;20182;-79
2022/06/08 11:10:49;;;;;;;1.40;0.70;;;25.00;90.20;;;;;;7391240;19;20520;-79
2022/06/08 11:13:22;;;;;;;7.00;1.77;;;25.10;90.30;;;;;;7391768;19;20130;-77
2022/06/08 11:16:11;;;;;;;1.38;0.85;;;25.20;90.00;;;;;;7392478;19;20498;-78
2022/06/08 11:18:53;;;;;;;2.40;0.90;;;25.30;90.50;;;;;;7390220;19;20150;-79
2022/06/08 11:21:39;;;;;;;1.40;0.85;;;25.50;90.60;;;;;;7392844;19;20151;-79
2022/06/08 11:24:33;;;;;;;2.00;1.05;;;25.30;90.50;;;;;;7398960;19;20598;-78
2022/06/08 11:27:11;;;;;;;2.65;0.98;;;25.30;90.80;;;;;;7397733;19;20138;-77
2022/06/08 11:29:47;;;;;;;1.35;0.50;;;25.30;91.00;;;;;;7390037;19;20176;-80
2022/06/08 11:32:36;;;;;;;2.58;0.80;;;25.10;90.10;;;;;;7394052;19;20150;-78
2022/06/08 11:35:46;;;;;;;0.70;0.50;;;25.10;88.40;;;;;;7388987;19;20155;-78
2022/06/08 11:38:34;;;;;;;4.47;0.90;;;25.00;87.80;;;;;;7390731;19;20159;-79
2022/06/08 11:41:30;;;;;;;2.08;0.50;;;25.00;89.00;;;;;;7392209;19;20135;-77
2022/06/08 11:44:03;;;;;;;1.13;0.80;;;25.00;87.40;;;;;;7394251;19;20134;-78
2022/06/08 11:46:35;;;;;;;1.40;1.08;;;25.00;88.70;;;;;;7394127;19;20146;-78
2022/06/08 11:49:01;;;;;;;2.65;1.67;;;24.70;88.80;;;;;;7390750;19;20214;-79
2022/06/08 11:51:36;;;;;;;1.83;0.90;;;24.80;90.20;;;;;;7393225;19;20130;-78
2022/06/08 11:54:26;;;;;;;1.48;0.80;;;24.80;90.40;;;;;;7394185;19;20126;-78
2022/06/08 11:57:14;;;;;;;1.73;1.00;;;24.80;90.20;;;;;;7392548;19;20126;-78
2022/06/08 11:59:43;;;;;;;1.92;1.17;;;24.90;90.70;;;;;;7396083;19;20155;-79
2022/06/08 12:02:24;;;;;;;0.82;0.80;;;24.80;90.30;;;;;;7392623;19;20131;-80
2022/06/08 12:04:56;;;;;;;2.78;1.95;;;24.70;90.10;;;;;;7389470;19;20638;-78
2022/06/08 12:07:42;;;;;;;3.60;1.00;;;24.60;90.10;;;;;;7391115;19;20138;-78
2022/06/08 12:10:12;;;;;;;0.95;0.55;;;24.70;90.00;;;;;;7387478;19;20599;-78
2022/06/08 12:12:41;;;;;;;2.05;1.20;;;24.70;90.20;;;;;;7389701;19;20130;-79
2022/06/08 12:15:45;;;;;;;1.20;0.80;;;24.80;90.90;;;;;;7388173;19;20144;-79
2022/06/08 12:18:37;;;;;;;3.25;0.80;;;24.60;89.40;;;;;;7389351;19;20174;-79
2022/06/08 12:21:22;;;;;;;1.80;0.60;;;24.60;89.00;;;;;;7391398;19;20138;-79
2022/06/08 12:24:01;;;;;;;2.60;0.52;;;24.70;87.10;;;;;;7388091;19;20130;-80
2022/06/08 12:26:55;;;;;;;4.28;1.30;;;24.90;87.70;;;;;;7388420;19;20126;-80
2022/06/08 12:29:29;;;;;;;1.95;0.98;;;25.10;88.10;;;;;;7388805;19;20198;-81
2022/06/08 12:31:58;;;;;;;1.20;0.60;;;25.00;87.40;;;;;;7391362;19;20239;-79
2022/06/08 12:34:39;;;;;;;2.53;0.90;;;24.90;87.30;;;;;;7391161;19;20139;-80
2022/06/08 12:37:26;;;;;;;1.85;0.70;;;24.90;88.70;;;;;;7393567;19;20161;-80
2022/06/08 12:39:58;;;;;;;5.22;0.77;;;24.70;87.50;;;;;;7389915;19;20150;-81
2022/06/08 12:42:30;;;;;;;2.53;0.70;;;24.70;88.70;;;;;;7393353;19;20130;-81
2022/06/08 12:44:58;;;;;;;1.35;0.68;;;24.70;88.00;;;;;;7389472;19;20139;-79
2022/06/08 12:47:29;;;;;;;0.90;0.60;;;24.70;88.30;;;;;;7388269;19;20572;-81
2022/06/08 12:50:11;;;;;;;2.28;0.65;;;24.70;88.80;;;;;;7389540;19;20159;-81
2022/06/08 12:52:37;;;;;;;1.67;0.60;;;24.70;88.80;;;;;;7388254;19;20134;-79
2022/06/08 12:55:13;;;;;;;1.70;0.80;;;24.80;88.20;;;;;;7387217;19;20150;-78
2022/06/08 12:57:42;;;;;;;1.17;0.60;;;24.80;89.90;;;;;;7391394;19;20578;-80
2022/06/08 13:00:16;;;;;;;3.00;0.82;;;24.80;88.70;;;;;;7389245;19;20146;-80
2022/06/08 13:02:42;;;;;;;2.00;0.70;;;24.80;89.20;;;;;;7389047;19;20163;-79
2022/06/08 13:05:22;;;;;;;2.95;0.65;;;24.90;89.20;;;;;;7388090;19;20159;-80
2022/06/08 13:07:50;;;;;;;1.38;0.68;;;25.00;87.90;;;;;;7395748;19;20134;-79
2022/06/08 13:10:16;;;;;;;1.05;0.60;;;24.90;87.40;;;;;;7393058;19;20142;-80
2022/06/08 13:12:54;;;;;;;2.70;0.80;;;25.00;88.00;;;;;;7401312;19;20158;-80
2022/06/08 13:15:32;;;;;;;1.63;1.25;;;25.00;89.20;;;;;;7397836;19;20144;-79
2022/06/08 13:17:59;;;;;;;2.38;0.65;;;25.00;88.20;;;;;;7396610;19;20549;-79
2022/06/08 13:20:29;;;;;;;3.35;0.80;;;25.00;87.00;;;;;;7396331;19;20657;-79
2022/06/08 13:22:55;;;;;;;2.22;0.57;;;24.80;86.80;;;;;;7394577;19;20481;-80
2022/06/08 13:25:23;;;;;;;1.42;0.68;;;24.90;88.90;;;;;;7394668;19;20147;-80
2022/06/08 13:27:50;;;;;;;2.75;0.60;;;24.90;87.50;;;;;;7394722;19;20504;-81
2022/06/08 13:30:18;;;;;;;1.92;0.50;;;24.90;87.00;;;;;;7394575;19;20134;-80